x

Destruction Island, Wa (desw1) Weather Station

8:00pm - Fri 24th Nov 2017 All times are PST. -8 hours from GMT.

  • Wind
    26mph, 30mph gusts
  • Air Temp 51°f
  • Sea Pressure 1016.1mb
  • Destruction Island, Wa
  • Destruction Island, Wa

More Historic Weather Station data

Upgrade to MSW Pro to gain access to the past 30 days of data for over 8000 Wavebouys and Weather Stations around the globe.

Join

Comparision Forecast

View Surf forecast
   
Fri 11/24 8:00pm 26 30 mph 1016.1mb 51f
7:00pm 23 29 mph 1015.8mb 51f
6:00pm 23 29 mph 1015.7mb 50f
5:00pm 28 29 mph 1016mb 50f
4:00pm 26 30 mph 1016mb 51f
3:00pm 24 29 mph 1016.1mb 51f
2:00pm 25 29 mph 1016.2mb 50f
1:00pm 29 34 mph 1016.6mb 49f
12:00pm 24 25 mph 1017mb 49f
11:00am 25 28 mph 1016.9mb 49f
9:00am 21 23 mph 1016.6mb 49f
8:00am 30 32 mph 1016.5mb 49f
7:00am 28 30 mph 1016.6mb 51f
6:00am 15 16 mph 1016.4mb 49f
5:00am 17 18 mph 1016.7mb 49f
4:00am 23 25 mph 1016.2mb 51f
3:00am 15 16 mph 1016.2mb 50f
2:00am 14 16 mph 1016.2mb 50f
1:00am 10 13 mph 1016.1mb 49f
12:00am 21 22 mph 1015.6mb 49f
Thu 11/23 11:00pm 22 24 mph 1014.9mb 49f
10:00pm 22 24 mph 1014.4mb 50f
9:00pm 18 21 mph 1013.9mb 50f
8:00pm 21 22 mph 1013.3mb 50f
7:00pm 22 25 mph 1012.7mb 51f
6:00pm 22 23 mph 1012.2mb 51f
5:00pm 15 16 mph 1011.7mb 51f
4:00pm 22 23 mph 1011.4mb 52f
3:00pm 21 23 mph 1011mb 52f
2:00pm 15 17 mph 1011mb 52f
1:00pm 10 10 mph 1011.1mb 53f
12:00pm 13 14 mph 1011mb 52f
11:00am 13 13 mph 1010.9mb 51f
10:00am 17 18 mph 1010.6mb 50f
9:00am 13 14 mph 1010.3mb 52f
8:00am 14 15 mph 1010.1mb 52f
7:00am 18 22 mph 1009.8mb 53f
6:00am 17 18 mph 1009.9mb 53f
5:00am 23 25 mph 1010.1mb 53f
4:00am 25 28 mph 1010.5mb 52f
3:00am 18 21 mph 1011.3mb 53f
2:00am 20 21 mph 1011.3mb 53f
1:00am 18 20 mph 1011.4mb 53f
12:00am 18 20 mph 1011.6mb 53f
Wed 11/22 11:00pm 21 22 mph 1011.3mb 54f
10:00pm 22 24 mph 1011mb 54f
9:00pm 24 26 mph 1010.7mb 53f
8:00pm 28 32 mph 1010.5mb 53f
7:00pm 29 34 mph 1010.4mb 54f
6:00pm 34 40 mph 1010.1mb 54f
5:00pm 40 45 mph 1009.7mb 54f
4:00pm 40 47 mph 1010.6mb 54f
3:00pm 43 45 mph 1010.6mb 54f
2:00pm 38 41 mph 1010.9mb 54f
1:00pm 38 43 mph 1011.4mb 54f
12:00pm 41 46 mph 1012mb 54f
11:00am 40 45 mph 1012.2mb 54f
10:00am 43 49 mph 1012.3mb 56f
9:00am 34 38 mph 1012.4mb 55f
8:00am 36 40 mph 1012.1mb 55f
7:00am 36 40 mph 1011.9mb 54f
6:00am 33 38 mph 1012.4mb 54f
5:00am 34 38 mph 1012.6mb 54f
4:00am 31 34 mph 1012.6mb 54f
3:00am 31 32 mph 1012.4mb 54f
2:00am 33 37 mph 1011.7mb 54f
1:00am 31 34 mph 1011.7mb 53f
12:00am 29 31 mph 1012.3mb 53f
Tue 11/21 9:00pm 28 30 mph 1011.1mb 53f
8:00pm 28 29 mph 1010.4mb 54f
7:00pm 30 32 mph 1009.7mb 54f
6:00pm 34 37 mph 1009mb 54f
5:00pm 37 39 mph 1008.4mb 54f
4:00pm 40 44 mph 1008mb 54f
3:00pm 40 45 mph 1007.1mb 54f
2:00pm 41 45 mph 1006mb 54f
1:00pm 48 56 mph 1006.2mb 55f
12:00pm 40 46 mph 1006.5mb 55f
11:00am 38 46 mph 1008.3mb 54f
10:00am 40 44 mph 1008.5mb 54f
9:00am 38 44 mph 1009.1mb 54f
8:00am 37 43 mph 1008.4mb 53f
7:00am 38 43 mph 1008.6mb 52f